Time;durP1;ratioP1;P1;durP2;ratioP2;P2;SDS_P1;SDS_P2;PMS_P1;PMS_P2;Temp;Humidity;BMP_temperature;BMP_pressure;BME280_temperature;BME280_humidity;BME280_pressure;Samples;Min_cycle;Max_cycle;Signal;HPM_P1;HPM_P2
2022/03/23 00:01:37;;;;;;;5.30;2.92;;;;;;;16.46;25.08;94549.38;4902214;29;20039;-89
2022/03/23 00:04:02;;;;;;;3.90;2.75;;;;;;;16.46;25.15;94549.38;4873145;29;20538;-88
2022/03/23 00:06:27;;;;;;;3.85;2.75;;;;;;;16.46;24.98;94543.91;4906266;29;20412;-89
2022/03/23 00:08:53;;;;;;;4.65;3.00;;;;;;;16.46;25.38;94543.91;4880870;29;20044;-88
2022/03/23 00:11:19;;;;;;;3.85;2.70;;;;;;;16.48;25.08;94548.91;4880093;29;20040;-88
2022/03/23 00:13:44;;;;;;;3.72;2.70;;;;;;;16.46;25.20;94541.19;4896878;29;20435;-90
2022/03/23 00:16:10;;;;;;;4.25;3.10;;;;;;;16.44;25.11;94543.66;4890690;29;20072;-88
2022/03/23 00:18:35;;;;;;;3.88;2.78;;;;;;;16.44;25.23;94540.94;4878905;29;20582;-89
2022/03/23 00:21:01;;;;;;;3.78;2.60;;;;;;;16.47;25.43;94544.66;4880415;29;20527;-88
2022/03/23 00:23:26;;;;;;;4.25;2.83;;;;;;;16.45;25.06;94536.22;4891099;29;20044;-90
2022/03/23 00:25:52;;;;;;;3.58;2.67;;;;;;;16.45;25.21;94547.16;4881601;29;20064;-89
2022/03/23 00:28:19;;;;;;;4.63;2.63;;;;;;;16.44;25.09;94540.94;4896678;29;20036;-89
2022/03/23 00:30:48;;;;;;;4.35;2.78;;;;;;;16.45;25.21;94542.41;4896395;29;20040;-89
2022/03/23 00:33:14;;;;;;;4.30;2.28;;;;;;;16.45;24.77;94528.75;4866816;29;20044;-88
2022/03/23 00:35:41;;;;;;;3.33;2.45;;;;;;;16.43;25.13;94525.78;4866352;29;20088;-89
2022/03/23 00:38:06;;;;;;;3.17;2.42;;;;;;;16.44;25.16;94521.81;4865214;29;20052;-91
2022/03/23 00:40:38;;;;;;;3.50;2.33;;;;;;;16.44;25.28;94529.25;4881499;29;20028;-92
2022/03/23 00:43:03;;;;;;;3.80;2.38;;;;;;;16.43;25.19;94523.06;4883181;29;20110;-88
2022/03/23 00:45:29;;;;;;;4.18;2.50;;;;;;;16.44;25.43;94515.63;4907521;29;20044;-89
2022/03/23 00:47:55;;;;;;;3.92;2.67;;;;;;;16.44;25.06;94515.63;4884262;29;20040;-88
2022/03/23 00:50:20;;;;;;;3.75;2.30;;;;;;;16.43;25.76;94514.88;4897828;29;20107;-88
2022/03/23 00:52:47;;;;;;;4.20;2.85;;;;;;;16.43;25.08;94509.41;4901638;29;20502;-88
2022/03/23 00:55:13;;;;;;;3.63;2.70;;;;;;;16.42;24.94;94512.59;4886546;29;20051;-89
2022/03/23 00:57:39;;;;;;;2.70;2.00;;;;;;;16.41;24.87;94509.13;4886353;29;20095;-89
2022/03/23 01:00:06;;;;;;;4.30;2.30;;;;;;;16.41;25.24;94498.19;4884934;29;20067;-88
2022/03/23 01:02:34;;;;;;;3.28;2.10;;;;;;;16.42;25.26;94496.22;4884918;29;20040;-88
2022/03/23 01:05:00;;;;;;;2.70;2.10;;;;;;;16.43;25.50;94495.75;4886270;29;20040;-89
2022/03/23 01:07:26;;;;;;;2.88;2.50;;;;;;;16.42;25.43;94498.97;4884584;29;20040;-88
2022/03/23 01:09:51;;;;;;;2.83;2.28;;;;;;;16.42;24.93;94488.03;4900239;29;20040;-88
2022/03/23 01:12:16;;;;;;;4.97;2.20;;;;;;;16.41;25.36;94492.00;4899874;29;20044;-88
2022/03/23 01:14:42;;;;;;;3.38;2.08;;;;;;;16.40;25.04;94485.78;4885553;29;20044;-88
2022/03/23 01:17:08;;;;;;;3.10;2.35;;;;;;;16.41;25.04;94484.56;4898364;29;20097;-88
2022/03/23 01:19:33;;;;;;;2.70;2.30;;;;;;;16.40;25.27;94476.84;4887050;29;20518;-88
2022/03/23 01:21:58;;;;;;;2.70;2.00;;;;;;;16.40;25.27;94476.84;4901214;29;20067;-90
2022/03/23 01:24:24;;;;;;;3.08;2.25;;;;;;;16.39;25.16;94476.09;4884180;29;20566;-88
2022/03/23 01:26:50;;;;;;;2.88;1.90;;;;;;;16.40;25.21;94476.84;4900424;29;20048;-88
2022/03/23 01:29:16;;;;;;;3.45;1.98;;;;;;;16.39;25.45;94470.63;4912985;29;20048;-88
2022/03/23 01:31:41;;;;;;;2.33;1.77;;;;;;;16.37;25.14;94464.88;4883370;29;20046;-90
2022/03/23 01:34:07;;;;;;;3.55;2.30;;;;;;;16.40;25.19;94471.38;4884196;29;20040;-89
2022/03/23 01:36:33;;;;;;;2.35;1.75;;;;;;;16.39;25.00;94469.88;4883865;29;20117;-88
2022/03/23 01:38:58;;;;;;;4.05;2.40;;;;;;;16.39;25.44;94470.63;4884770;29;20137;-88
2022/03/23 01:41:24;;;;;;;2.40;1.90;;;;;;;16.39;25.38;94456.22;4888834;29;20053;-89
2022/03/23 01:43:50;;;;;;;1.95;1.70;;;;;;;16.38;25.19;94454.72;4906889;29;20058;-89
2022/03/23 01:46:17;;;;;;;2.55;1.70;;;;;;;16.40;25.52;94449.56;4899490;29;20085;-88
2022/03/23 01:48:43;;;;;;;2.40;1.70;;;;;;;16.38;25.17;94463.66;4899983;29;20039;-91
2022/03/23 01:51:08;;;;;;;2.65;1.77;;;;;;;16.37;25.37;94456.69;4885830;29;20510;-88
2022/03/23 01:53:33;;;;;;;2.60;1.80;;;;;;;16.38;25.36;94457.47;4886235;29;20029;-88
2022/03/23 01:55:59;;;;;;;2.78;1.80;;;;;;;16.39;25.06;94464.41;4885840;29;20065;-88
2022/03/23 01:58:27;;;;;;;3.33;1.73;;;;;;;16.36;25.58;94462.63;4886247;29;20439;-88
2022/03/23 02:00:53;;;;;;;3.55;1.75;;;;;;;16.36;25.12;94449.75;4901838;29;20282;-87
2022/03/23 02:03:19;;;;;;;2.40;1.50;;;;;;;16.36;25.22;94449.75;4898368;29;20042;-88
2022/03/23 02:05:44;;;;;;;2.47;1.85;;;;;;;16.37;25.58;94447.75;4885039;29;20036;-89
2022/03/23 02:08:10;;;;;;;2.58;1.80;;;;;;;16.35;25.42;94450.22;4901136;29;20110;-89
2022/03/23 02:10:35;;;;;;;3.60;1.95;;;;;;;16.38;25.20;94462.91;4880797;29;20037;-88
2022/03/23 02:13:01;;;;;;;2.10;1.48;;;;;;;16.36;25.57;94454.44;4913388;29;20040;-89
2022/03/23 02:15:28;;;;;;;2.20;1.58;;;;;;;16.35;25.37;94448.22;4896659;29;20229;-89
2022/03/23 02:17:54;;;;;;;2.72;1.70;;;;;;;16.35;25.12;94456.41;4902541;29;20056;-87
2022/03/23 02:20:20;;;;;;;2.63;1.42;;;;;;;16.36;25.72;94448.97;4885106;29;20145;-89
2022/03/23 02:22:46;;;;;;;1.90;1.50;;;;;;;16.34;24.98;94435.81;4885008;29;20032;-89
2022/03/23 02:25:13;;;;;;;2.47;1.80;;;;;;;16.35;25.26;94450.22;4884553;29;20123;-89
2022/03/23 02:27:40;;;;;;;2.13;1.60;;;;;;;16.34;25.58;94445.97;4884494;29;20118;-89
2022/03/23 02:30:07;;;;;;;2.03;1.55;;;;;;;16.34;25.33;94448.69;4892879;29;20102;-88
2022/03/23 02:32:32;;;;;;;2.17;1.63;;;;;;;16.33;25.22;94442.50;4883339;29;20036;-89
2022/03/23 02:35:00;;;;;;;2.05;1.40;;;;;;;16.33;25.27;94445.22;4900773;29;20135;-88
2022/03/23 02:37:26;;;;;;;1.55;1.40;;;;;;;16.35;25.33;94436.56;4919158;29;20175;-88
2022/03/23 02:39:52;;;;;;;2.60;1.60;;;;;;;16.33;25.40;94437.03;4895948;29;20350;-90
2022/03/23 02:42:17;;;;;;;3.45;1.50;;;;;;;16.34;25.48;94446.72;4900129;29;20044;-89
2022/03/23 02:44:43;;;;;;;2.38;1.58;;;;;;;16.34;25.33;94438.53;4899281;29;20044;-89
2022/03/23 02:47:09;;;;;;;2.58;1.52;;;;;;;16.33;25.16;94442.50;4881334;29;20032;-88
2022/03/23 02:49:34;;;;;;;2.20;1.58;;;;;;;16.32;25.34;94448.41;4883123;29;20031;-89
2022/03/23 02:52:00;;;;;;;1.98;1.25;;;;;;;16.32;25.41;94441.00;4899146;29;20048;-89
2022/03/23 03:03:28;;;;;;;2.40;1.50;;;;;;;16.33;25.53;94449.94;4914291;29;20055;-90
2022/03/23 03:05:53;;;;;;;3.15;1.92;;;;;;;16.31;25.36;94444.94;4897729;29;20067;-89
2022/03/23 03:11:03;;;;;;;2.63;1.20;;;;;;;16.30;25.13;94448.88;4899944;29;20047;-88
2022/03/23 03:13:29;;;;;;;1.20;1.08;;;;;;;16.29;25.42;94433.75;4883044;29;20036;-88
2022/03/23 03:16:03;;;;;;;1.70;1.20;;;;;;;16.29;25.60;94436.47;4898594;29;20503;-91
2022/03/23 03:18:32;;;;;;;3.28;1.67;;;;;;;16.30;25.82;94435.25;4897677;29;20120;-91
2022/03/23 03:20:58;;;;;;;1.00;0.90;;;;;;;16.31;25.60;94449.63;4907938;29;20040;-90
2022/03/23 03:23:23;;;;;;;1.33;1.17;;;;;;;16.30;25.33;94437.22;4878087;29;20507;-91
2022/03/23 03:25:49;;;;;;;3.05;1.70;;;;;;;16.29;25.39;94441.19;4897930;29;20056;-88
2022/03/23 03:28:15;;;;;;;2.08;1.42;;;;;;;16.28;25.54;94432.25;4881515;29;20044;-89
2022/03/23 03:30:40;;;;;;;1.88;1.48;;;;;;;16.29;25.38;94441.94;4888531;29;20052;-89
2022/03/23 03:33:06;;;;;;;2.03;1.20;;;;;;;16.29;25.38;94441.19;4878291;29;20052;-90
2022/03/23 03:35:31;;;;;;;1.50;1.23;;;;;;;16.30;25.68;94434.50;4878183;29;20044;-88
2022/03/23 03:37:57;;;;;;;1.77;1.20;;;;;;;16.29;25.15;94435.72;4908489;29;20053;-92
2022/03/23 03:40:22;;;;;;;2.25;1.48;;;;;;;16.29;25.60;94439.19;4910283;29;20490;-89
2022/03/23 03:42:47;;;;;;;1.38;1.08;;;;;;;16.29;25.66;94438.44;4880897;29;20043;-92
2022/03/23 03:45:13;;;;;;;1.73;1.48;;;;;;;16.30;25.24;94439.94;4881462;28;20032;-89
2022/03/23 03:47:38;;;;;;;1.77;1.35;;;;;;;16.28;25.55;94434.97;4897348;29;20068;-88
2022/03/23 03:50:13;;;;;;;2.58;1.48;;;;;;;16.30;25.36;94423.59;4913340;28;20414;-92
2022/03/23 03:52:39;;;;;;;1.55;1.38;;;;;;;16.30;25.60;94431.75;4879460;29;20044;-88
2022/03/23 03:55:05;;;;;;;2.33;1.38;;;;;;;16.28;25.47;94434.22;4878616;29;20052;-88
2022/03/23 03:57:30;;;;;;;1.85;1.10;;;;;;;16.28;25.35;94431.47;4893716;29;20575;-89
2022/03/23 03:59:56;;;;;;;1.50;1.20;;;;;;;16.27;25.35;94429.97;4898975;29;20092;-92
2022/03/23 04:02:21;;;;;;;1.65;1.10;;;;;;;16.28;25.33;94431.47;4901343;29;20068;-89
2022/03/23 04:04:47;;;;;;;1.50;1.27;;;;;;;16.27;25.57;94428.00;4884224;29;20048;-91
2022/03/23 04:07:12;;;;;;;1.20;0.90;;;;;;;16.30;25.91;94429.03;4915923;29;20040;-91
2022/03/23 04:09:37;;;;;;;1.17;0.90;;;;;;;16.28;25.47;94434.97;4915136;29;20040;-89
2022/03/23 04:12:03;;;;;;;1.23;1.10;;;;;;;16.27;25.47;94436.19;4908783;29;20044;-89
2022/03/23 04:14:29;;;;;;;1.45;1.15;;;;;;;16.25;25.60;94419.53;4881190;29;20115;-90
2022/03/23 04:16:55;;;;;;;1.30;1.10;;;;;;;16.28;25.49;94426.03;4881514;29;20044;-89
2022/03/23 04:19:21;;;;;;;1.23;1.13;;;;;;;16.28;25.39;94424.06;4880654;29;20463;-88
2022/03/23 04:21:46;;;;;;;1.63;1.10;;;;;;;16.28;25.34;94426.03;4881289;29;20032;-89
2022/03/23 04:24:11;;;;;;;1.95;1.20;;;;;;;16.26;25.47;94431.19;4912379;29;20052;-92
2022/03/23 04:26:37;;;;;;;2.17;1.05;;;;;;;16.24;25.44;94431.66;4897263;29;20549;-89
2022/03/23 04:29:02;;;;;;;1.58;1.30;;;;;;;16.24;25.76;94426.22;4885299;29;20045;-92
2022/03/23 04:31:28;;;;;;;1.35;1.10;;;;;;;16.25;25.57;94429.69;4900548;29;20039;-88
2022/03/23 04:33:54;;;;;;;1.30;1.17;;;;;;;16.25;25.68;94424.25;4889139;29;20044;-90
2022/03/23 04:36:20;;;;;;;1.30;1.02;;;;;;;16.25;25.38;94429.69;4896712;29;20057;-89
2022/03/23 04:38:45;;;;;;;1.80;1.10;;;;;;;16.27;25.44;94416.34;4901709;29;20562;-89
2022/03/23 04:41:11;;;;;;;1.52;1.15;;;;;;;16.27;25.70;94419.06;4884813;29;20044;-90
2022/03/23 04:43:38;;;;;;;1.67;1.02;;;;;;;16.26;25.74;94425.75;4885278;29;20402;-89
2022/03/23 04:46:05;;;;;;;1.33;1.00;;;;;;;16.23;25.48;94424.75;4898704;29;20048;-91
2022/03/23 04:48:31;;;;;;;1.35;1.08;;;;;;;16.24;25.45;94434.41;4900273;29;20406;-89
2022/03/23 04:50:59;;;;;;;1.20;1.10;;;;;;;16.23;25.60;94443.84;4901749;29;20044;-91
2022/03/23 04:53:25;;;;;;;1.50;0.98;;;;;;;16.23;25.78;94426.72;4916893;29;20059;-89
2022/03/23 04:55:50;;;;;;;1.77;1.05;;;;;;;16.24;25.86;94430.94;4901065;29;20465;-90
2022/03/23 04:58:16;;;;;;;1.75;0.82;;;;;;;16.23;25.38;94432.91;4884182;29;20048;-91
2022/03/23 05:00:41;;;;;;;1.63;1.17;;;;;;;16.22;25.91;94439.59;4884017;29;20043;-89
2022/03/23 05:03:08;;;;;;;2.72;1.10;;;;;;;16.22;25.43;94431.41;4887605;29;20317;-92
2022/03/23 05:05:33;;;;;;;2.33;1.30;;;;;;;16.22;25.24;94439.59;4879541;29;20071;-90
2022/03/23 05:07:59;;;;;;;1.75;0.98;;;;;;;16.24;25.67;94430.94;4894750;29;20037;-93
2022/03/23 05:10:24;;;;;;;1.02;0.90;;;;;;;16.23;25.71;94432.91;4895731;29;20059;-88
2022/03/23 05:12:50;;;;;;;2.47;1.20;;;;;;;16.24;25.24;94431.66;4918959;29;20048;-88
2022/03/23 05:15:16;;;;;;;1.15;0.95;;;;;;;16.23;25.77;94435.66;4883261;28;20099;-89
2022/03/23 05:17:41;;;;;;;1.25;0.80;;;;;;;16.23;25.41;94430.19;4880561;29;20044;-88
2022/03/23 05:20:08;;;;;;;1.42;1.10;;;;;;;16.24;25.57;94437.13;4880148;29;20043;-94
2022/03/23 05:22:33;;;;;;;1.15;0.90;;;;;;;16.23;25.74;94429.44;4883320;29;20048;-89
2022/03/23 05:24:59;;;;;;;1.50;1.10;;;;;;;16.25;25.47;94432.41;4907196;29;20040;-90
2022/03/23 05:27:27;;;;;;;1.25;0.85;;;;;;;16.23;25.46;94434.91;4919049;29;20054;-91
2022/03/23 05:29:53;;;;;;;214.85;19.75;;;;;;;16.25;25.99;94435.91;4898368;29;20052;-91
2022/03/23 05:32:22;;;;;;;56.58;9.27;;;;;;;16.26;25.62;94431.19;4892160;29;20032;-91
2022/03/23 05:34:50;;;;;;;51.60;7.82;;;;;;;16.31;25.68;94436.00;4918535;29;20115;-92
2022/03/23 05:37:16;;;;;;;55.08;13.27;;;;;;;16.31;25.39;94430.53;4902754;29;20052;-88
2022/03/23 05:39:49;;;;;;;126.03;44.63;;;;;;;16.37;25.69;94440.31;4915924;29;20044;-86
2022/03/23 05:42:21;;;;;;;36.25;7.03;;;;;;;16.38;26.30;94446.53;4899252;29;20491;-90
2022/03/23 05:45:08;;;;;;;41.30;8.05;;;;;;;16.42;25.65;94442.41;4917692;29;20083;-92
2022/03/23 05:47:34;;;;;;;20.92;5.22;;;;;;;16.46;25.54;94437.47;4952504;23;20036;-89
2022/03/23 05:50:00;;;;;;;27.85;5.60;;;;;;;16.43;25.51;94433.00;4877842;29;20069;-91
2022/03/23 05:52:26;;;;;;;46.55;7.13;;;;;;;16.51;25.69;94438.78;4909252;29;20112;-90
2022/03/23 05:55:07;;;;;;;31.98;4.60;;;;;;;16.42;24.57;94436.19;4870304;29;20037;-93
2022/03/23 05:57:39;;;;;;;31.08;4.90;;;;;;;16.33;23.26;94442.50;4820820;29;20045;-92
2022/03/23 06:00:16;;;;;;;31.77;5.43;;;;;;;16.29;22.38;94435.72;4865097;29;20049;-95
2022/03/23 06:03:01;;;;;;;;;;;;;;;;;;;;;
2022/03/23 06:05:27;;;;;;;23.10;7.70;;;;;;;16.34;22.50;94445.97;4822749;29;20056;-94
2022/03/23 06:07:57;;;;;;;25.90;7.10;;;;;;;16.35;22.82;94431.88;4851862;29;20056;-92
2022/03/23 06:10:26;;;;;;;19.92;7.65;;;;;;;16.34;23.18;94446.72;4879936;29;20049;-91
2022/03/23 06:12:52;;;;;;;30.90;8.10;;;;;;;16.35;23.75;94445.50;4846327;29;20069;-95
2022/03/23 06:15:18;;;;;;;46.10;9.35;;;;;;;16.42;24.84;94452.56;4826779;29;20038;-93
2022/03/23 06:17:45;;;;;;;30.33;8.68;;;;;;;16.40;25.44;94455.00;4821133;29;20135;-92
2022/03/23 06:20:11;;;;;;;19.95;3.92;;;;;;;16.36;23.40;94447.00;4822037;29;20088;-92
2022/03/23 06:22:45;;;;;;;19.83;4.50;;;;;;;16.35;22.22;94459.16;4833740;29;20130;-94
2022/03/23 06:30:47;;;;;;;21.25;3.90;;;;;;;16.19;19.19;94462.38;4873696;29;20052;-96
2022/03/23 06:33:13;;;;;;;17.15;4.43;;;;;;;16.22;19.67;94461.44;4792672;29;20050;-94
2022/03/23 06:35:38;;;;;;;32.35;5.82;;;;;;;16.18;19.64;94460.09;4793419;29;20103;-92
2022/03/23 06:38:04;;;;;;;19.10;4.50;;;;;;;16.24;19.88;94464.41;4819938;29;20131;-92
2022/03/23 06:40:30;;;;;;;15.45;3.40;;;;;;;16.16;18.87;94466.03;4810546;29;20050;-94
2022/03/23 06:42:56;;;;;;;26.13;5.60;;;;;;;16.17;18.98;94464.81;4817551;29;20091;-93
2022/03/23 06:45:22;;;;;;;28.88;8.65;;;;;;;16.18;18.92;94463.59;4824129;29;20054;-94
2022/03/23 06:47:50;;;;;;;16.02;4.90;;;;;;;16.20;19.69;94469.31;4786932;29;20054;-95
2022/03/23 06:50:16;;;;;;;28.58;6.97;;;;;;;16.19;18.78;94467.06;4815109;29;20099;-94
2022/03/23 06:52:46;;;;;;;34.05;7.38;;;;;;;16.19;18.98;94470.53;4792287;29;20030;-93
2022/03/23 06:55:12;;;;;;;29.77;7.45;;;;;;;16.18;19.24;94476.47;4814666;29;20046;-90
2022/03/23 06:57:38;;;;;;;24.00;6.55;;;;;;;16.17;18.66;94469.50;4804267;29;20069;-90
2022/03/23 07:00:12;;;;;;;33.40;6.25;;;;;;;16.18;19.13;94465.56;4809444;29;20077;-90
2022/03/23 07:02:42;;;;;;;25.77;5.38;;;;;;;16.19;19.17;94467.06;4786595;29;20110;-93
2022/03/23 07:05:09;;;;;;;38.00;6.93;;;;;;;16.24;19.13;94467.13;4836406;29;20583;-90
2022/03/23 07:07:35;;;;;;;39.53;7.75;;;;;;;16.27;19.51;94470.91;4833804;29;20329;-92
2022/03/23 07:10:02;;;;;;;21.90;6.70;;;;;;;16.38;20.72;94469.13;4854971;29;20116;-90
2022/03/23 07:12:27;;;;;;;28.15;7.85;;;;;;;16.38;20.56;94474.59;4827859;29;20070;-92
2022/03/23 07:14:53;;;;;;;26.75;8.10;;;;;;;16.48;21.80;94477.94;4842091;29;20501;-90
2022/03/23 07:17:32;;;;;;;31.95;8.30;;;;;;;16.54;22.70;94481.53;4838732;29;20048;-92
2022/03/23 07:19:58;;;;;;;46.28;9.82;;;;;;;16.64;22.97;94474.03;4863324;29;20064;-89
2022/03/23 07:22:25;;;;;;;22.92;7.93;;;;;;;16.66;22.19;94475.06;4839791;29;20117;-91
2022/03/23 07:24:51;;;;;;;19.85;7.03;;;;;;;16.67;22.72;94479.25;4845896;29;20123;-90
2022/03/23 07:27:16;;;;;;;43.25;10.80;;;;;;;16.66;22.73;94477.78;4874214;29;20068;-90
2022/03/23 07:29:42;;;;;;;28.23;8.38;;;;;;;16.66;23.00;94474.31;4843910;29;20156;-89
2022/03/23 07:32:08;;;;;;;28.23;8.82;;;;;;;16.65;22.59;94475.53;4861972;29;20726;-90
2022/03/23 07:34:33;;;;;;;37.38;9.05;;;;;;;16.68;22.53;94491.69;4859275;29;20489;-90
2022/03/23 07:36:59;;;;;;;43.33;11.10;;;;;;;16.67;22.51;94475.81;4860065;29;20131;-90
2022/03/23 07:39:27;;;;;;;28.92;10.52;;;;;;;16.72;22.57;94486.03;4862975;29;20063;-91
2022/03/23 07:41:53;;;;;;;44.20;9.25;;;;;;;16.74;23.74;94478.13;4863061;29;20496;-91
2022/03/23 07:44:21;;;;;;;38.58;11.85;;;;;;;16.75;22.82;94485.84;4863920;29;20072;-91
2022/03/23 07:46:46;;;;;;;30.95;11.00;;;;;;;16.74;22.82;94487.06;4855702;29;20033;-89
2022/03/23 07:49:13;;;;;;;42.75;13.15;;;;;;;16.75;22.89;94490.56;4846895;29;20045;-89
2022/03/23 07:51:39;;;;;;;35.53;12.73;;;;;;;16.76;22.92;94492.81;4861084;29;20568;-87
2022/03/23 07:54:05;;;;;;;120.97;50.78;;;;;;;16.77;23.42;94485.38;4862653;29;20077;-89
2022/03/23 07:56:32;;;;;;;75.13;33.17;;;;;;;16.74;23.34;94489.81;4845820;29;20622;-87
2022/03/23 07:58:58;;;;;;;105.18;40.85;;;;;;;16.78;23.35;94495.06;4859765;29;20041;-92
2022/03/23 08:01:26;;;;;;;78.80;35.60;;;;;;;16.80;23.55;94489.91;4830900;29;20047;-89
2022/03/23 08:03:53;;;;;;;71.97;35.00;;;;;;;16.83;23.04;94485.47;4827482;29;20395;-89
2022/03/23 08:06:18;;;;;;;86.32;38.22;;;;;;;16.84;22.93;94486.97;4865937;29;20168;-88
2022/03/23 08:08:44;;;;;;;82.35;39.10;;;;;;;16.84;22.81;94495.91;4877836;24;20045;-87
2022/03/23 08:11:09;;;;;;;82.57;41.75;;;;;;;16.84;22.80;94489.72;4894771;24;20055;-88
2022/03/23 08:13:35;;;;;;;78.30;39.47;;;;;;;16.86;23.04;94487.25;4923759;29;20052;-89
2022/03/23 08:16:01;;;;;;;71.13;34.35;;;;;;;16.86;22.80;94489.97;4900390;29;20426;-90
2022/03/23 08:18:27;;;;;;;71.03;31.73;;;;;;;16.89;22.98;94491.78;4897001;29;20044;-89
2022/03/23 08:20:52;;;;;;;62.10;30.55;;;;;;;16.91;22.94;94492.03;4890491;29;20108;-88
2022/03/23 08:23:29;;;;;;;55.35;29.58;;;;;;;16.89;23.11;94494.50;4889501;29;20040;-91
2022/03/23 08:25:56;;;;;;;46.38;26.13;;;;;;;16.91;23.11;94497.50;4905751;29;20638;-92
2022/03/23 08:28:22;;;;;;;45.50;25.23;;;;;;;16.93;22.90;94493.06;4887990;29;20052;-95
2022/03/23 08:30:48;;;;;;;40.03;22.23;;;;;;;16.93;23.16;94498.53;4884881;29;20064;-91
2022/03/23 08:33:14;;;;;;;53.17;24.40;;;;;;;16.94;23.09;94502.00;4886687;23;20048;-94
2022/03/23 08:35:48;;;;;;;39.20;22.23;;;;;;;16.95;23.33;94504.25;4890884;29;20033;-91
2022/03/23 08:38:15;;;;;;;50.30;21.13;;;;;;;16.97;23.14;94495.59;4924086;29;20047;-91
2022/03/23 08:40:41;;;;;;;63.30;22.63;;;;;;;16.97;22.82;94507.28;4915359;24;20032;-91
2022/03/23 08:43:06;;;;;;;66.10;21.40;;;;;;;16.96;23.48;94503.03;4918268;29;20031;-93
2022/03/23 08:45:38;;;;;;;67.38;23.98;;;;;;;16.95;23.61;94506.25;4926177;29;20036;-91
2022/03/23 08:48:05;;;;;;;62.97;23.38;;;;;;;16.92;23.58;94507.19;4948243;29;20058;-94
2022/03/23 08:50:35;;;;;;;70.75;20.58;;;;;;;16.94;23.75;94507.47;4891883;29;20048;-91
2022/03/23 08:53:03;;;;;;;61.92;19.60;;;;;;;16.93;24.04;94500.50;4905450;29;20132;-91
2022/03/23 08:55:33;;;;;;;79.72;28.02;;;;;;;16.92;24.11;94505.22;4921473;29;20036;-92
2022/03/23 08:58:06;;;;;;;71.10;23.38;;;;;;;16.91;23.95;94503.69;4943089;29;20042;-91
2022/03/23 09:00:31;;;;;;;69.72;24.25;;;;;;;16.94;23.98;94507.47;4903826;29;20124;-92
2022/03/23 09:05:31;;;;;;;64.82;25.08;;;;;;;16.95;23.94;94504.25;4900775;29;20067;-96
2022/03/23 09:07:56;;;;;;;165.73;81.18;;;;;;;16.96;23.72;94507.75;4852357;29;20044;-90
2022/03/23 09:10:23;;;;;;;80.05;36.20;;;;;;;16.98;24.02;94511.50;4871883;29;20650;-93
2022/03/23 09:12:50;;;;;;;213.63;110.45;;;;;;;16.98;23.65;94506.06;4877475;29;20051;-90
2022/03/23 09:15:35;;;;;;;149.00;63.38;;;;;;;17.00;23.76;94509.06;4893911;29;20041;-86
2022/03/23 09:18:04;;;;;;;185.38;89.38;;;;;;;16.99;23.78;94510.28;4901832;29;20048;-91
2022/03/23 09:20:37;;;;;;;156.35;67.03;;;;;;;17.00;23.92;94520.00;4849263;29;20631;-90
2022/03/23 09:23:04;;;;;;;157.32;70.35;;;;;;;17.02;23.46;94506.59;4862359;29;20056;-93
2022/03/23 09:25:31;;;;;;;194.32;89.53;;;;;;;17.01;23.72;94512.53;4886569;29;20515;-91
2022/03/23 09:27:57;;;;;;;193.23;83.78;;;;;;;17.04;24.81;94506.88;4870954;29;20037;-90
2022/03/23 09:30:25;;;;;;;225.73;93.32;;;;;;;17.04;25.33;94506.88;4872781;29;20157;-90
2022/03/23 09:32:52;;;;;;;155.07;65.63;;;;;;;17.01;24.45;94521.50;4874709;29;20048;-92
2022/03/23 09:35:19;;;;;;;97.00;48.30;;;;;;;16.99;23.89;94513.00;4860474;29;20041;-94
2022/03/23 09:37:48;;;;;;;125.10;52.88;;;;;;;17.02;23.66;94509.34;4886440;29;20133;-91
2022/03/23 09:40:24;;;;;;;127.97;50.95;;;;;;;17.02;24.00;94511.31;4845632;29;20059;-92
2022/03/23 09:46:06;;;;;;;119.45;55.00;;;;;;;17.02;23.84;94497.66;4864304;29;20056;-93
2022/03/23 09:48:34;;;;;;;122.85;49.95;;;;;;;17.01;23.95;94498.88;4844503;29;20049;-92
2022/03/23 09:53:34;;;;;;;109.78;45.97;;;;;;;17.01;24.27;94501.63;4945065;23;20063;-93
2022/03/23 09:58:57;;;;;;;123.32;47.33;;;;;;;17.02;24.16;94500.41;4800919;29;20047;-91
2022/03/23 10:01:28;;;;;;;96.32;42.75;;;;;;;17.00;23.90;94495.41;4810431;29;20073;-95
2022/03/23 10:04:42;;;;;;;94.53;41.50;;;;;;;17.00;23.86;94495.41;4830830;29;20102;-94
2022/03/23 10:07:27;;;;;;;92.25;44.50;;;;;;;17.01;24.07;94493.41;4843568;29;20547;-89
2022/03/23 10:10:12;;;;;;;95.03;49.38;;;;;;;17.05;23.87;94493.97;4851180;29;20938;-89
2022/03/23 10:13:17;;;;;;;119.25;61.13;;;;;;;17.01;23.95;94490.69;4816525;29;20046;-87
2022/03/23 10:16:13;;;;;;;116.80;59.92;;;;;;;17.01;24.35;94491.44;4841246;29;20038;-88
2022/03/23 10:18:59;;;;;;;132.90;62.22;;;;;;;17.03;24.32;94493.69;4824848;29;20050;-89
2022/03/23 10:21:30;;;;;;;125.45;65.70;;;;;;;17.03;24.03;94494.47;4775687;29;20071;-90
2022/03/23 10:24:30;;;;;;;134.63;62.00;;;;;;;17.02;24.07;94486.72;4749422;30;20087;-92
2022/03/23 10:27:17;;;;;;;117.85;60.08;;;;;;;17.01;24.05;94485.97;4748617;30;20044;-91
2022/03/23 10:30:14;;;;;;;117.70;55.45;;;;;;;17.03;24.06;94480.03;4749474;30;20052;-92
2022/03/23 10:33:05;;;;;;;116.63;55.50;;;;;;;17.03;23.74;94486.25;4782586;30;20054;-90
2022/03/23 10:36:09;;;;;;;105.40;51.75;;;;;;;17.02;23.90;94486.72;4777586;30;20115;-93
2022/03/23 10:39:17;;;;;;;;;;;;;;;;;;;;;
2022/03/23 10:44:24;;;;;;;74.40;41.80;;;;;;;17.07;24.32;94486.06;4887446;23;20184;-92
2022/03/23 10:49:51;;;;;;;76.38;39.75;;;;;;;17.04;23.67;94476.09;4922302;29;20055;-94
2022/03/23 10:52:21;;;;;;;62.47;31.20;;;;;;;17.06;22.71;94476.38;4890093;24;20048;-94
2022/03/23 10:55:45;;;;;;;69.80;31.60;;;;;;;17.06;23.49;94468.91;4909868;29;20036;-94
2022/03/23 10:58:20;;;;;;;75.88;29.80;;;;;;;17.05;22.17;94467.41;4922739;29;20040;-94
2022/03/23 11:00:54;;;;;;;53.78;25.88;;;;;;;17.05;22.02;94472.13;4920140;29;20052;-93
2022/03/23 11:03:19;;;;;;;54.30;28.00;;;;;;;17.06;22.26;94468.16;4897426;29;20056;-89
2022/03/23 11:05:46;;;;;;;59.45;28.67;;;;;;;17.07;22.83;94461.47;4881444;29;20099;-90
2022/03/23 11:08:13;;;;;;;59.05;27.80;;;;;;;17.07;22.40;94461.47;4899610;29;20130;-88
2022/03/23 11:19:26;;;;;;;53.80;25.58;;;;;;;17.07;23.05;94448.56;4858818;29;20045;-92
2022/03/23 11:22:34;;;;;;;46.90;25.08;;;;;;;17.07;23.00;94447.81;4843746;29;20075;-93
2022/03/23 11:24:59;;;;;;;47.33;24.40;;;;;;;17.09;23.03;94448.84;4855306;29;20544;-89
2022/03/23 11:27:26;;;;;;;47.88;25.98;;;;;;;17.09;23.09;94446.13;4867166;29;20111;-90
2022/03/23 11:29:53;;;;;;;46.03;23.75;;;;;;;17.07;23.21;94453.28;4870577;29;20037;-90
2022/03/23 11:32:27;;;;;;;35.03;20.67;;;;;;;17.07;23.23;94448.56;4841825;29;20509;-94
2022/03/23 11:34:53;;;;;;;48.13;24.67;;;;;;;17.09;23.03;94448.84;4861949;29;20671;-90
2022/03/23 11:37:19;;;;;;;46.60;23.73;;;;;;;17.08;23.60;94444.63;4857372;29;20041;-87
2022/03/23 11:39:51;;;;;;;43.17;21.98;;;;;;;17.09;23.30;94448.09;4847818;29;20197;-89
2022/03/23 11:42:36;;;;;;;36.83;20.40;;;;;;;17.07;23.18;94436.91;4879256;29;20044;-90
2022/03/23 11:45:02;;;;;;;38.05;21.55;;;;;;;17.09;23.19;94437.16;4887190;29;20068;-90
2022/03/23 11:47:28;;;;;;;35.28;18.48;;;;;;;17.07;23.41;94436.91;4860583;29;20071;-94
2022/03/23 11:50:32;;;;;;;30.60;17.50;;;;;;;17.07;23.79;94440.38;4875764;29;20052;-92
2022/03/23 11:53:10;;;;;;;32.97;16.90;;;;;;;17.11;23.35;94429.97;4870124;29;20108;-89
2022/03/23 11:55:37;;;;;;;36.80;18.60;;;;;;;17.18;23.55;94433.53;4890356;29;20040;-92
2022/03/23 11:58:17;;;;;;;34.10;18.42;;;;;;;17.14;23.49;94431.00;4870734;29;20190;-89
2022/03/23 12:00:51;;;;;;;55.50;18.38;;;;;;;17.13;23.68;94418.56;4882670;29;20076;-88
2022/03/23 12:03:43;;;;;;;53.38;17.25;;;;;;;17.12;23.53;94417.06;4882099;29;20519;-87
2022/03/23 12:06:09;;;;;;;58.35;19.90;;;;;;;17.14;23.77;94426.28;4860942;29;20052;-87
2022/03/23 12:08:59;;;;;;;51.15;20.70;;;;;;;17.11;23.67;94418.28;4815097;29;20069;-87
2022/03/23 12:11:43;;;;;;;42.75;17.50;;;;;;;17.13;23.43;94408.41;4843141;29;20050;-86
2022/03/23 12:14:19;;;;;;;32.05;16.33;;;;;;;17.13;23.83;94413.09;4854247;29;20037;-86
2022/03/23 12:16:50;;;;;;;33.83;16.40;;;;;;;17.13;23.76;94411.13;4832731;29;20146;-87
2022/03/23 12:19:24;;;;;;;27.40;14.23;;;;;;;17.09;23.92;94405.13;4862656;29;20198;-86